createdAt,value
2023-03-24T00:02:04.842Z,1.27
2023-03-24T00:04:32.914Z,0.93
2023-03-24T00:07:01.832Z,0.85
2023-03-24T00:09:32.590Z,2.13
2023-03-24T00:12:00.745Z,2.60
2023-03-24T00:14:30.737Z,2.08
2023-03-24T00:19:26.837Z,2.05
2023-03-24T00:21:55.952Z,1.77
2023-03-24T00:24:23.590Z,1.33
2023-03-24T00:26:51.981Z,2.53
2023-03-24T00:29:20.180Z,0.90
2023-03-24T00:31:47.605Z,2.08
2023-03-24T00:34:15.254Z,1.98
2023-03-24T00:36:42.587Z,2.10
2023-03-24T00:39:09.950Z,1.70
2023-03-24T00:41:36.910Z,0.73
2023-03-24T00:44:06.066Z,2.30
2023-03-24T00:46:34.111Z,0.95
2023-03-24T00:49:07.318Z,1.15
2023-03-24T00:51:39.888Z,1.45
2023-03-24T00:54:09.268Z,1.88
2023-03-24T00:56:40.842Z,0.60
2023-03-24T00:59:10.479Z,1.25
2023-03-24T01:01:41.286Z,0.80
2023-03-24T01:04:10.490Z,0.80
2023-03-24T01:06:38.425Z,0.75
2023-03-24T01:09:06.153Z,0.52
2023-03-24T01:11:40.189Z,1.02
2023-03-24T01:14:09.795Z,1.10
2023-03-24T01:16:37.211Z,0.57
2023-03-24T01:19:05.436Z,0.80
2023-03-24T01:21:35.096Z,0.88
2023-03-24T01:24:03.342Z,0.93
2023-03-24T01:26:30.717Z,0.70
2023-03-24T01:28:58.192Z,1.10
2023-03-24T01:31:25.609Z,1.08
2023-03-24T01:33:53.044Z,1.05
2023-03-24T01:36:20.148Z,0.57
2023-03-24T01:38:47.478Z,0.98
2023-03-24T01:41:14.460Z,0.60
2023-03-24T01:43:41.377Z,1.33
2023-03-24T01:46:14.007Z,1.58
2023-03-24T01:49:01.385Z,1.98
2023-03-24T01:51:34.754Z,0.52
2023-03-24T01:54:08.045Z,1.50
2023-03-24T01:56:38.714Z,0.90
2023-03-24T01:59:13.323Z,1.15
2023-03-24T02:01:40.458Z,1.33
2023-03-24T02:04:08.147Z,1.05
2023-03-24T02:06:41.171Z,1.40
2023-03-24T02:09:09.046Z,1.58
2023-03-24T02:11:37.997Z,1.35
2023-03-24T02:14:07.305Z,1.70
2023-03-24T02:16:49.165Z,1.45
2023-03-24T02:19:16.521Z,2.20
2023-03-24T02:21:55.639Z,1.85
2023-03-24T02:24:22.952Z,1.70
2023-03-24T02:26:53.018Z,0.73
2023-03-24T02:32:17.016Z,1.75
2023-03-24T02:34:56.385Z,1.42
2023-03-24T02:38:01.010Z,1.08
2023-03-24T02:40:34.044Z,1.00
2023-03-24T02:43:28.825Z,1.05
2023-03-24T02:49:19.287Z,1.80
2023-03-24T02:51:49.074Z,0.47
2023-03-24T02:54:27.194Z,1.17
2023-03-24T02:57:04.088Z,1.20
2023-03-24T02:59:31.419Z,3.05
2023-03-24T03:02:09.279Z,1.33
2023-03-24T03:05:14.024Z,1.67
2023-03-24T03:07:44.777Z,1.38
2023-03-24T03:10:17.963Z,0.77
2023-03-24T03:12:50.196Z,1.88
2023-03-24T03:15:28.275Z,1.40
2023-03-24T03:18:11.331Z,1.50
2023-03-24T03:20:51.020Z,0.75
2023-03-24T03:23:28.485Z,0.60
2023-03-24T03:26:05.975Z,1.83
2023-03-24T03:28:36.707Z,0.70
2023-03-24T03:31:07.528Z,1.45
2023-03-24T03:33:40.835Z,3.35
2023-03-24T03:36:10.946Z,0.80
2023-03-24T03:39:18.382Z,1.27
2023-03-24T03:41:46.268Z,1.27
2023-03-24T03:44:13.342Z,0.77
2023-03-24T03:46:41.174Z,1.20
2023-03-24T03:49:09.040Z,1.17
2023-03-24T03:51:36.537Z,1.40
2023-03-24T03:54:07.570Z,1.15
2023-03-24T03:56:36.818Z,0.88
2023-03-24T03:59:06.261Z,0.85
2023-03-24T04:01:37.640Z,1.45
2023-03-24T04:04:42.254Z,0.75
2023-03-24T04:07:20.050Z,0.65
2023-03-24T04:09:55.537Z,0.70
2023-03-24T04:12:28.889Z,0.82
2023-03-24T04:15:11.466Z,0.52
2023-03-24T04:18:03.471Z,1.88
2023-03-24T04:20:56.909Z,1.42
2023-03-24T04:23:42.601Z,1.13
2023-03-24T04:26:10.563Z,1.48
2023-03-24T04:28:58.295Z,2.00
2023-03-24T04:31:34.370Z,1.70
2023-03-24T04:36:42.718Z,0.65
2023-03-24T04:39:14.776Z,0.90
2023-03-24T04:41:43.324Z,1.20
2023-03-24T04:44:12.668Z,0.60
2023-03-24T04:46:40.363Z,1.00
2023-03-24T04:49:08.024Z,1.23
2023-03-24T04:51:35.766Z,1.45
2023-03-24T04:54:02.798Z,1.67
2023-03-24T04:56:47.784Z,2.40
2023-03-24T04:59:15.838Z,1.77
2023-03-24T05:01:50.130Z,1.35
2023-03-24T05:04:18.384Z,2.30
2023-03-24T05:06:46.859Z,2.30
2023-03-24T05:09:15.122Z,1.75
2023-03-24T05:11:42.613Z,1.63
2023-03-24T05:14:10.035Z,0.70
2023-03-24T05:16:37.749Z,1.95
2023-03-24T05:19:05.277Z,1.77
2023-03-24T05:21:33.611Z,2.35
2023-03-24T05:24:01.324Z,2.88
2023-03-24T05:26:28.878Z,2.35
2023-03-24T05:28:57.359Z,1.90
2023-03-24T05:31:24.352Z,3.00
2023-03-24T05:33:51.528Z,4.95
2023-03-24T05:36:18.643Z,1.42
2023-03-24T05:38:46.033Z,2.55
2023-03-24T05:41:12.963Z,3.90
2023-03-24T05:43:40.296Z,3.97
2023-03-24T05:46:07.648Z,1.88
2023-03-24T05:48:34.745Z,3.60
2023-03-24T05:51:02.113Z,2.67
2023-03-24T05:53:29.067Z,2.70
2023-03-24T05:55:58.800Z,1.98
2023-03-24T05:58:25.865Z,3.47
2023-03-24T06:00:54.626Z,3.47
2023-03-24T06:03:22.142Z,1.63
2023-03-24T06:05:50.843Z,3.80
2023-03-24T06:08:18.879Z,3.85
2023-03-24T06:10:46.558Z,3.25
2023-03-24T06:13:14.363Z,3.40
2023-03-24T06:15:43.119Z,4.07
2023-03-24T06:18:14.145Z,4.90
2023-03-24T06:20:43.886Z,6.35
2023-03-24T06:23:11.362Z,2.70
2023-03-24T06:25:38.680Z,4.05
2023-03-24T06:28:06.546Z,4.55
2023-03-24T06:30:33.961Z,3.17
2023-03-24T06:33:01.065Z,2.85
2023-03-24T06:35:28.310Z,5.53
2023-03-24T06:37:55.978Z,5.75
2023-03-24T06:40:23.526Z,4.25
2023-03-24T06:42:50.578Z,3.20
2023-03-24T06:45:17.922Z,7.00
2023-03-24T06:47:45.385Z,4.65
2023-03-24T06:50:12.429Z,6.32
2023-03-24T06:52:40.851Z,3.15
2023-03-24T06:55:08.463Z,8.25
2023-03-24T06:57:35.420Z,3.92
2023-03-24T07:00:03.235Z,5.38
2023-03-24T07:02:35.809Z,4.88
2023-03-24T07:05:08.387Z,10.40
2023-03-24T07:10:06.614Z,6.18
2023-03-24T07:12:36.602Z,6.35
2023-03-24T07:17:32.595Z,3.15
2023-03-24T07:19:59.898Z,4.90
2023-03-24T07:22:26.939Z,6.55
2023-03-24T07:24:54.340Z,6.80
2023-03-24T07:27:21.591Z,4.78
2023-03-24T07:29:48.586Z,7.05
2023-03-24T07:32:15.624Z,4.72
2023-03-24T07:34:43.979Z,3.28
2023-03-24T07:37:11.496Z,3.80
2023-03-24T07:39:38.997Z,4.15
2023-03-24T07:42:06.291Z,4.03
2023-03-24T07:44:33.356Z,6.10
2023-03-24T07:47:00.815Z,3.30
2023-03-24T07:49:27.928Z,3.95
2023-03-24T07:51:54.935Z,4.22
2023-03-24T07:54:22.008Z,5.25
2023-03-24T07:56:51.182Z,3.70
2023-03-24T07:59:18.768Z,7.13
2023-03-24T08:01:48.401Z,5.28
2023-03-24T08:04:16.258Z,7.68
2023-03-24T08:06:44.363Z,5.72
2023-03-24T08:09:12.105Z,6.68
2023-03-24T08:11:40.555Z,4.68
2023-03-24T08:14:08.351Z,7.30
2023-03-24T08:16:35.437Z,5.20
2023-03-24T08:19:02.884Z,7.30
2023-03-24T08:21:30.181Z,7.82
2023-03-24T08:23:57.261Z,5.97
2023-03-24T08:26:26.867Z,6.40
2023-03-24T08:28:54.451Z,7.70
2023-03-24T08:31:21.913Z,7.57
2023-03-24T08:33:49.306Z,6.07
2023-03-24T08:36:21.714Z,6.25
2023-03-24T08:38:51.900Z,5.25
2023-03-24T08:41:19.210Z,7.57
2023-03-24T08:43:46.754Z,6.28
2023-03-24T08:46:15.882Z,7.55
2023-03-24T08:48:46.109Z,6.22
2023-03-24T08:51:15.451Z,5.25
2023-03-24T08:53:43.566Z,7.05
2023-03-24T08:56:11.161Z,7.47
2023-03-24T08:58:38.609Z,7.90
2023-03-24T09:01:06.100Z,7.97
2023-03-24T09:03:33.121Z,6.38
2023-03-24T09:06:00.588Z,6.85
2023-03-24T09:08:28.208Z,5.38
2023-03-24T09:10:56.618Z,7.20
2023-03-24T09:13:24.495Z,6.22
2023-03-24T09:15:57.591Z,6.63
2023-03-24T09:18:24.985Z,5.28
2023-03-24T09:20:52.445Z,5.47
2023-03-24T09:23:20.329Z,5.22
2023-03-24T09:25:49.904Z,5.55
2023-03-24T09:30:45.083Z,6.45
2023-03-24T09:33:13.355Z,5.65
2023-03-24T09:35:41.192Z,6.18
2023-03-24T09:38:10.931Z,6.88
2023-03-24T09:43:11.667Z,5.80
2023-03-24T09:45:45.510Z,7.18
2023-03-24T09:48:30.739Z,5.72
2023-03-24T09:51:04.312Z,4.80
2023-03-24T09:53:31.874Z,4.50
2023-03-24T09:56:06.846Z,4.38
2023-03-24T09:58:34.664Z,4.95
2023-03-24T10:01:02.470Z,4.93
2023-03-24T10:03:30.257Z,3.70
2023-03-24T10:06:30.557Z,3.17
2023-03-24T10:09:07.571Z,6.63
2023-03-24T10:11:39.925Z,4.72
2023-03-24T10:14:13.839Z,4.13
2023-03-24T10:16:52.615Z,3.72
2023-03-24T10:19:26.360Z,3.70
2023-03-24T10:22:12.909Z,6.32
2023-03-24T10:24:44.768Z,3.05
2023-03-24T10:27:31.534Z,4.88
2023-03-24T10:30:02.842Z,4.05
2023-03-24T10:32:33.661Z,4.40
2023-03-24T10:35:09.642Z,5.82
2023-03-24T10:37:37.957Z,5.22
2023-03-24T10:40:18.298Z,5.50
2023-03-24T10:42:46.859Z,8.82
2023-03-24T10:45:41.759Z,10.10
2023-03-24T10:48:09.883Z,6.80
2023-03-24T10:50:42.543Z,7.97
2023-03-24T10:53:21.007Z,5.28
2023-03-24T10:55:57.385Z,5.38
2023-03-24T10:58:35.389Z,3.35
2023-03-24T11:01:04.040Z,5.38
2023-03-24T11:03:37.660Z,6.63
2023-03-24T11:06:07.000Z,5.13
2023-03-24T11:08:38.723Z,4.80
2023-03-24T11:11:32.024Z,4.45
2023-03-24T11:14:02.355Z,3.88
2023-03-24T11:16:30.701Z,4.28
2023-03-24T11:19:06.028Z,5.50
2023-03-24T11:21:37.208Z,5.93
2023-03-24T11:24:14.676Z,5.20
2023-03-24T11:27:03.860Z,5.90
2023-03-24T11:29:39.922Z,5.55
2023-03-24T11:32:15.822Z,5.22
2023-03-24T11:34:53.007Z,4.90
2023-03-24T11:37:35.598Z,5.18
2023-03-24T11:40:20.897Z,5.55
2023-03-24T11:42:51.170Z,4.22
2023-03-24T11:45:28.312Z,6.20
2023-03-24T11:47:59.764Z,5.30
2023-03-24T11:50:31.530Z,6.53
2023-03-24T11:53:02.244Z,5.63
2023-03-24T11:55:29.812Z,7.25
2023-03-24T11:57:57.395Z,6.53
2023-03-24T12:00:25.164Z,8.02
2023-03-24T12:03:11.213Z,7.85
2023-03-24T12:05:52.962Z,7.88
2023-03-24T12:08:46.370Z,6.80
2023-03-24T12:11:19.226Z,6.15
2023-03-24T12:13:50.014Z,6.63
2023-03-24T12:16:28.412Z,4.78
2023-03-24T12:19:17.716Z,8.65
2023-03-24T12:21:51.050Z,8.95
2023-03-24T12:24:25.810Z,6.90
2023-03-24T12:27:01.560Z,6.22
2023-03-24T12:29:38.456Z,6.13
2023-03-24T12:32:48.078Z,6.78
2023-03-24T12:35:15.441Z,6.00
2023-03-24T12:37:47.945Z,6.40
2023-03-24T12:40:41.202Z,4.40
2023-03-24T12:43:16.317Z,4.85
2023-03-24T12:45:52.740Z,6.00
2023-03-24T12:48:56.200Z,5.32
2023-03-24T12:51:25.961Z,5.82
2023-03-24T12:56:45.877Z,8.75
2023-03-24T12:59:27.072Z,10.20
2023-03-24T13:02:09.782Z,6.45
2023-03-24T13:04:38.742Z,7.60
2023-03-24T13:07:17.894Z,13.70
2023-03-24T13:10:05.104Z,8.40
2023-03-24T13:12:49.262Z,12.85
2023-03-24T13:15:36.292Z,13.32
2023-03-24T13:18:06.317Z,10.80
2023-03-24T13:20:47.932Z,13.00
2023-03-24T13:23:45.560Z,7.05
2023-03-24T13:26:21.723Z,7.05
2023-03-24T13:29:01.441Z,4.60
2023-03-24T13:31:38.012Z,7.55
2023-03-24T13:34:09.365Z,4.82
2023-03-24T13:36:50.632Z,7.70
2023-03-24T13:39:23.973Z,6.15
2023-03-24T13:41:53.467Z,29.30
2023-03-24T13:44:23.952Z,17.35
2023-03-24T13:47:16.885Z,15.93
2023-03-24T13:49:59.661Z,31.92
2023-03-24T13:52:36.650Z,18.95
2023-03-24T13:55:15.162Z,12.55
2023-03-24T13:57:58.207Z,13.15
2023-03-24T14:00:27.019Z,14.32
2023-03-24T14:03:17.278Z,5.55
2023-03-24T14:06:05.861Z,5.57
2023-03-24T14:09:15.549Z,5.80
2023-03-24T14:11:45.935Z,3.03
2023-03-24T14:14:16.040Z,5.20
2023-03-24T14:17:04.388Z,10.13
2023-03-24T14:22:10.722Z,6.18
2023-03-24T14:24:38.986Z,4.68
2023-03-24T14:27:35.296Z,6.13
2023-03-24T14:30:21.377Z,5.43
2023-03-24T14:32:56.045Z,3.92
2023-03-24T14:35:42.212Z,3.88
2023-03-24T14:38:29.618Z,8.05
2023-03-24T14:41:06.478Z,7.10
2023-03-24T14:43:39.600Z,5.22
2023-03-24T14:46:21.936Z,4.43
2023-03-24T14:49:11.984Z,4.40
2023-03-24T14:51:58.817Z,14.40
2023-03-24T14:54:47.787Z,3.47
2023-03-24T14:57:31.859Z,3.65
2023-03-24T15:00:12.275Z,2.17
2023-03-24T15:02:51.418Z,4.85
2023-03-24T15:05:30.064Z,3.55
2023-03-24T15:08:08.941Z,2.97
2023-03-24T15:10:48.454Z,4.63
2023-03-24T15:13:43.477Z,3.22
2023-03-24T15:16:10.913Z,2.28
2023-03-24T15:19:01.805Z,3.42
2023-03-24T15:21:35.436Z,4.05
2023-03-24T15:24:23.226Z,4.78
2023-03-24T15:26:54.026Z,5.13
2023-03-24T15:29:23.441Z,7.00
2023-03-24T15:31:52.843Z,7.05
2023-03-24T15:34:29.694Z,4.32
2023-03-24T15:37:00.362Z,3.83
2023-03-24T15:39:29.142Z,4.40
2023-03-24T15:41:57.095Z,3.80
2023-03-24T15:44:31.190Z,4.15
2023-03-24T15:46:59.658Z,3.28
2023-03-24T15:49:32.318Z,6.10
2023-03-24T15:52:04.901Z,3.65
2023-03-24T15:54:37.910Z,2.45
2023-03-24T15:57:16.849Z,4.45
2023-03-24T16:00:19.169Z,4.20
2023-03-24T16:02:46.928Z,4.43
2023-03-24T16:05:25.546Z,3.63
2023-03-24T16:08:00.375Z,5.15
2023-03-24T16:10:33.881Z,5.43
2023-03-24T16:13:21.627Z,5.15
2023-03-24T16:15:59.790Z,5.55
2023-03-24T16:18:34.675Z,4.57
2023-03-24T16:21:02.781Z,3.88
2023-03-24T16:23:31.107Z,3.60
2023-03-24T16:25:58.878Z,2.97
2023-03-24T16:28:27.781Z,4.53
2023-03-24T16:31:06.581Z,5.00
2023-03-24T16:33:35.744Z,4.55
2023-03-24T16:36:03.722Z,3.33
2023-03-24T16:38:33.292Z,4.75
2023-03-24T16:41:01.094Z,4.20
2023-03-24T16:43:33.378Z,4.60
2023-03-24T16:46:02.191Z,4.28
2023-03-24T16:48:31.492Z,3.90
2023-03-24T16:50:59.109Z,3.15
2023-03-24T16:53:27.180Z,3.13
2023-03-24T16:55:55.019Z,4.72
2023-03-24T16:58:22.692Z,3.33
2023-03-24T17:00:52.154Z,5.80
2023-03-24T17:03:20.031Z,3.30
2023-03-24T17:05:49.107Z,5.43
2023-03-24T17:08:16.860Z,6.93
2023-03-24T17:10:45.010Z,5.40
2023-03-24T17:13:33.296Z,4.30
2023-03-24T17:16:01.314Z,5.43
2023-03-24T17:18:29.085Z,4.20
2023-03-24T17:20:56.912Z,3.88
2023-03-24T17:23:24.930Z,4.63
2023-03-24T17:25:52.593Z,3.20
2023-03-24T17:28:20.492Z,3.70
2023-03-24T17:30:49.306Z,3.67
2023-03-24T17:33:17.186Z,4.78
2023-03-24T17:35:48.476Z,3.85
2023-03-24T17:38:16.728Z,4.43
2023-03-24T17:40:44.488Z,2.88
2023-03-24T17:43:12.332Z,3.65
2023-03-24T17:45:43.288Z,3.40
2023-03-24T17:48:11.235Z,3.47
2023-03-24T17:50:39.184Z,3.38
2023-03-24T17:53:07.406Z,3.17
2023-03-24T17:55:35.065Z,3.60
2023-03-24T17:58:02.708Z,3.08
2023-03-24T18:00:30.434Z,4.07
2023-03-24T18:02:58.256Z,2.92
2023-03-24T18:05:26.300Z,3.92
2023-03-24T18:07:54.115Z,2.38
2023-03-24T18:10:24.801Z,2.70
2023-03-24T18:12:53.344Z,3.58
2023-03-24T18:15:21.120Z,3.20
2023-03-24T18:17:48.824Z,4.07
2023-03-24T18:20:16.790Z,2.88
2023-03-24T18:22:44.549Z,4.18
2023-03-24T18:25:13.628Z,4.68
2023-03-24T18:27:42.596Z,4.78
2023-03-24T18:30:13.285Z,5.43
2023-03-24T18:32:43.005Z,3.55
2023-03-24T18:35:16.660Z,3.25
2023-03-24T18:37:45.300Z,4.22
2023-03-24T18:40:14.863Z,6.07
2023-03-24T18:42:44.774Z,4.05
2023-03-24T18:47:48.418Z,2.97
2023-03-24T18:50:16.076Z,2.80
2023-03-24T18:52:43.745Z,4.38
2023-03-24T18:55:11.579Z,3.55
2023-03-24T18:57:41.538Z,3.55
2023-03-24T19:02:38.833Z,4.20
2023-03-24T19:05:08.064Z,4.35
2023-03-24T19:07:37.201Z,3.80
2023-03-24T19:10:05.670Z,4.15
2023-03-24T19:12:33.633Z,4.88
2023-03-24T19:15:01.751Z,6.57
2023-03-24T19:17:29.506Z,6.10
2023-03-24T19:19:58.189Z,5.50
2023-03-24T19:22:27.005Z,6.80
2023-03-24T19:24:54.906Z,5.28
2023-03-24T19:27:23.692Z,6.80
2023-03-24T19:29:53.102Z,4.70
2023-03-24T19:32:21.045Z,4.80
2023-03-24T19:34:50.140Z,4.70
2023-03-24T19:37:17.790Z,5.22
2023-03-24T19:39:46.154Z,4.13
2023-03-24T19:42:15.010Z,5.28
2023-03-24T19:44:42.564Z,5.38
2023-03-24T19:47:10.383Z,5.57
2023-03-24T19:49:38.166Z,8.55
2023-03-24T19:52:06.636Z,7.85
2023-03-24T19:54:34.329Z,5.35
2023-03-24T19:57:02.186Z,6.97
2023-03-24T19:59:29.968Z,6.63
2023-03-24T20:01:57.757Z,5.70
2023-03-24T20:04:25.395Z,5.47
2023-03-24T20:06:53.066Z,4.70
2023-03-24T20:09:20.704Z,4.85
2023-03-24T20:11:48.375Z,6.13
2023-03-24T20:14:16.992Z,6.28
2023-03-24T20:16:44.786Z,7.93
2023-03-24T20:19:12.285Z,6.97
2023-03-24T20:21:39.700Z,5.90
2023-03-24T20:24:07.442Z,6.80
2023-03-24T20:26:35.052Z,7.20
2023-03-24T20:29:02.765Z,7.15
2023-03-24T20:31:30.616Z,5.95
2023-03-24T20:33:59.286Z,6.25
2023-03-24T20:36:26.975Z,5.93
2023-03-24T20:38:59.136Z,4.72
2023-03-24T20:41:27.457Z,6.10
2023-03-24T20:43:55.205Z,5.60
2023-03-24T20:46:22.852Z,6.10
2023-03-24T20:48:50.700Z,5.80
2023-03-24T20:51:18.396Z,6.00
2023-03-24T20:53:49.689Z,4.70
2023-03-24T20:56:18.304Z,4.35
2023-03-24T20:58:46.375Z,5.00
2023-03-24T21:01:22.186Z,3.90
2023-03-24T21:03:50.641Z,5.43
2023-03-24T21:06:18.904Z,5.55
2023-03-24T21:08:46.507Z,6.53
2023-03-24T21:11:14.548Z,2.03
2023-03-24T21:13:42.244Z,5.35
2023-03-24T21:16:10.277Z,3.85
2023-03-24T21:18:44.031Z,6.43
2023-03-24T21:21:12.815Z,4.28
2023-03-24T21:23:41.118Z,5.15
2023-03-24T21:26:12.494Z,5.28
2023-03-24T21:28:41.198Z,6.45
2023-03-24T21:31:12.220Z,4.25
2023-03-24T21:33:40.987Z,4.35
2023-03-24T21:36:09.988Z,3.92
2023-03-24T21:38:37.851Z,2.75
2023-03-24T21:41:05.568Z,3.55
2023-03-24T21:43:33.344Z,2.85
2023-03-24T21:46:01.072Z,4.05
2023-03-24T21:48:28.861Z,2.97
2023-03-24T21:50:57.575Z,3.53
2023-03-24T21:53:26.247Z,2.90
2023-03-24T21:56:05.403Z,3.60
2023-03-24T21:58:33.753Z,3.30
2023-03-24T22:01:01.590Z,2.78
2023-03-24T22:03:30.745Z,3.50
2023-03-24T22:05:58.418Z,3.10
2023-03-24T22:08:30.736Z,3.53
2023-03-24T22:10:59.127Z,3.15
2023-03-24T22:13:27.511Z,2.65
2023-03-24T22:15:55.900Z,3.00
2023-03-24T22:18:24.000Z,2.60
2023-03-24T22:21:01.067Z,2.67
2023-03-24T22:23:32.927Z,2.63
2023-03-24T22:26:04.794Z,2.30
2023-03-24T22:28:33.111Z,2.55
2023-03-24T22:31:04.668Z,2.60
2023-03-24T22:33:32.848Z,3.10
2023-03-24T22:36:01.415Z,3.05
2023-03-24T22:38:29.612Z,2.50
2023-03-24T22:41:00.970Z,2.42
2023-03-24T22:43:29.010Z,2.28
2023-03-24T22:45:56.728Z,2.75
2023-03-24T22:48:24.588Z,2.45
2023-03-24T22:50:52.286Z,2.65
2023-03-24T22:53:20.468Z,3.10
2023-03-24T22:55:48.288Z,2.63
2023-03-24T22:58:16.330Z,0.90
2023-03-24T23:00:44.755Z,1.52
2023-03-24T23:03:12.414Z,1.70
2023-03-24T23:05:41.030Z,3.70
2023-03-24T23:08:09.643Z,2.70
2023-03-24T23:10:37.499Z,2.30
2023-03-24T23:13:05.196Z,3.45
2023-03-24T23:15:32.899Z,2.30
2023-03-24T23:18:01.029Z,2.00
2023-03-24T23:20:29.819Z,1.20
2023-03-24T23:22:57.839Z,2.03
2023-03-24T23:25:26.056Z,2.22
2023-03-24T23:27:53.673Z,1.20
2023-03-24T23:30:21.571Z,1.15
2023-03-24T23:32:50.889Z,0.47
2023-03-24T23:35:19.164Z,1.15
2023-03-24T23:37:46.837Z,2.10
2023-03-24T23:40:15.595Z,0.85
2023-03-24T23:42:46.643Z,0.50
2023-03-24T23:45:15.651Z,1.50
2023-03-24T23:47:44.135Z,2.15
2023-03-24T23:50:12.465Z,0.57
2023-03-24T23:52:44.229Z,1.27
2023-03-24T23:55:15.279Z,0.45
2023-03-24T23:57:43.498Z,1.50
